Time;durP1;ratioP1;P1;durP2;ratioP2;P2;SDS_P1;SDS_P2;PMS_P1;PMS_P2;Temp;Humidity;BMP_temperature;BMP_pressure;BME280_temperature;BME280_humidity;BME280_pressure;Samples;Min_cycle;Max_cycle;Signal;HPM_P1;HPM_P2
2022/07/14 00:01:47;;;;;;;5.25;2.90;;;22.80;61.80;;;;;;4836963;29;20063;-84
2022/07/14 00:04:13;;;;;;;5.72;3.00;;;22.70;61.90;;;;;;4821979;29;20038;-83
2022/07/14 00:06:39;;;;;;;4.72;2.65;;;22.70;62.00;;;;;;4821650;29;20042;-85
2022/07/14 00:09:05;;;;;;;4.80;2.65;;;22.70;61.70;;;;;;4806883;29;20030;-84
2022/07/14 00:11:31;;;;;;;5.53;2.60;;;22.70;62.10;;;;;;4823005;29;20471;-85
2022/07/14 00:13:58;;;;;;;5.55;2.60;;;22.70;61.90;;;;;;4821944;29;20045;-84
2022/07/14 00:16:25;;;;;;;4.43;2.35;;;22.70;61.50;;;;;;4836294;29;20058;-85
2022/07/14 00:18:51;;;;;;;4.25;2.70;;;22.70;61.70;;;;;;4836903;29;20074;-86
2022/07/14 00:21:17;;;;;;;6.60;2.90;;;22.70;61.70;;;;;;4791779;29;20084;-86
2022/07/14 00:23:45;;;;;;;6.03;2.67;;;22.70;61.90;;;;;;4821927;29;20043;-84
2022/07/14 00:26:12;;;;;;;3.95;2.30;;;22.70;61.80;;;;;;4821369;29;20145;-85
2022/07/14 00:28:39;;;;;;;5.43;2.63;;;22.70;61.80;;;;;;4806667;29;20484;-85
2022/07/14 00:31:10;;;;;;;7.00;2.88;;;22.70;61.10;;;;;;4806605;29;20031;-83
2022/07/14 00:33:40;;;;;;;6.13;2.50;;;22.70;61.50;;;;;;4806602;29;20035;-84
2022/07/14 00:36:06;;;;;;;;;;;22.70;61.40;;;;;;4821719;29;20058;-84
2022/07/14 00:38:32;;;;;;;3.47;2.38;;;22.70;61.20;;;;;;4836705;29;19912;-84
2022/07/14 00:40:58;;;;;;;8.32;2.47;;;22.70;61.10;;;;;;4836672;29;20688;-84
2022/07/14 00:43:24;;;;;;;5.20;2.42;;;22.70;61.20;;;;;;4821399;29;20035;-84
2022/07/14 00:45:50;;;;;;;3.58;2.00;;;22.70;61.00;;;;;;4821102;29;20041;-84
2022/07/14 00:48:24;;;;;;;3.63;2.40;;;22.70;61.10;;;;;;4821323;29;20045;-84
2022/07/14 00:50:51;;;;;;;4.22;2.53;;;22.70;61.10;;;;;;4822256;29;20031;-85
2022/07/14 00:53:17;;;;;;;5.13;2.53;;;22.70;61.20;;;;;;4839907;29;20073;-84
2022/07/14 00:55:43;;;;;;;3.97;2.28;;;22.70;61.70;;;;;;4809441;29;20369;-83
2022/07/14 00:58:10;;;;;;;4.80;2.22;;;22.70;61.30;;;;;;4824350;29;20072;-84
2022/07/14 01:00:37;;;;;;;4.22;2.30;;;22.70;61.40;;;;;;4809305;29;20385;-86
2022/07/14 01:03:05;;;;;;;3.58;2.25;;;22.60;61.20;;;;;;4825766;29;20555;-86
2022/07/14 01:05:31;;;;;;;4.05;2.25;;;22.60;61.30;;;;;;4809634;29;20488;-87
2022/07/14 01:07:58;;;;;;;4.28;2.10;;;22.60;61.20;;;;;;4824470;29;20552;-85
2022/07/14 01:10:23;;;;;;;4.72;2.15;;;22.60;61.50;;;;;;4824915;29;20038;-86
2022/07/14 01:12:49;;;;;;;2.58;1.90;;;22.60;60.90;;;;;;4839699;29;20510;-86
2022/07/14 01:15:20;;;;;;;4.57;1.98;;;22.60;61.00;;;;;;4809573;29;20041;-84
2022/07/14 01:17:47;;;;;;;3.80;2.40;;;22.60;60.70;;;;;;4824401;29;20042;-86
2022/07/14 01:20:18;;;;;;;4.68;2.45;;;22.60;60.80;;;;;;4809827;29;20042;-87
2022/07/14 01:22:46;;;;;;;3.33;1.90;;;22.60;60.80;;;;;;4809813;29;20038;-88
2022/07/14 01:25:16;;;;;;;4.05;2.10;;;22.60;60.80;;;;;;4809661;29;20441;-87
2022/07/14 01:27:42;;;;;;;;;;;22.60;61.00;;;;;;4839894;29;20046;-86
2022/07/14 01:30:09;;;;;;;5.38;2.10;;;22.60;61.00;;;;;;4824257;29;19916;-86
2022/07/14 01:32:35;;;;;;;4.22;2.45;;;22.60;61.00;;;;;;4809710;29;20121;-87
2022/07/14 01:35:04;;;;;;;8.25;2.15;;;22.50;60.80;;;;;;4809172;29;20031;-87
2022/07/14 01:37:34;;;;;;;4.45;2.28;;;22.50;61.00;;;;;;4823752;29;20067;-86
2022/07/14 01:40:01;;;;;;;4.43;2.22;;;22.50;60.90;;;;;;4809120;29;20037;-86
2022/07/14 01:42:27;;;;;;;4.57;2.38;;;22.50;60.90;;;;;;4809146;29;20034;-84
2022/07/14 01:44:53;;;;;;;5.03;2.33;;;22.50;60.80;;;;;;4808721;29;20090;-87
2022/07/14 01:47:19;;;;;;;4.07;2.20;;;22.50;60.70;;;;;;4823757;29;20034;-84
2022/07/14 01:49:45;;;;;;;5.63;2.20;;;22.50;60.70;;;;;;4823677;29;20567;-85
2022/07/14 01:52:10;;;;;;;5.32;1.80;;;22.50;60.60;;;;;;4839000;29;20113;-85
2022/07/14 01:54:38;;;;;;;3.30;1.60;;;22.50;60.10;;;;;;4808835;29;20031;-85
2022/07/14 01:57:06;;;;;;;4.90;2.10;;;22.40;60.00;;;;;;4838539;29;20078;-84
2022/07/14 01:59:32;;;;;;;5.75;2.13;;;22.40;60.30;;;;;;4808627;29;20058;-85
2022/07/14 02:01:59;;;;;;;6.65;2.08;;;22.40;59.80;;;;;;4808162;29;20090;-85
2022/07/14 02:04:25;;;;;;;6.05;2.05;;;22.40;59.50;;;;;;4808384;29;20061;-85
2022/07/14 02:06:53;;;;;;;4.43;1.67;;;22.50;59.10;;;;;;4823077;29;20485;-84
2022/07/14 02:12:26;;;;;;;8.27;1.98;;;22.40;58.80;;;;;;4808386;29;20038;-83
2022/07/14 02:14:52;;;;;;;7.85;2.00;;;22.40;58.50;;;;;;4823180;29;20023;-83
2022/07/14 02:17:18;;;;;;;4.80;1.77;;;22.40;58.70;;;;;;4838343;29;20046;-83
2022/07/14 02:19:43;;;;;;;6.38;1.90;;;22.40;58.20;;;;;;4808179;29;20633;-83
2022/07/14 02:22:09;;;;;;;5.07;2.05;;;22.40;59.00;;;;;;4838333;29;20066;-83
2022/07/14 02:24:35;;;;;;;10.65;2.15;;;22.40;58.20;;;;;;4838227;29;20054;-84
2022/07/14 02:27:01;;;;;;;4.90;1.88;;;22.40;58.20;;;;;;4807619;29;20121;-83
2022/07/14 02:29:27;;;;;;;5.85;1.90;;;22.40;58.30;;;;;;4838049;29;20122;-83
2022/07/14 02:31:53;;;;;;;4.65;1.83;;;22.40;58.50;;;;;;4808220;29;20037;-85
2022/07/14 02:34:19;;;;;;;7.38;2.05;;;22.40;58.40;;;;;;4807803;29;20601;-85
2022/07/14 02:36:44;;;;;;;5.00;1.85;;;22.40;58.30;;;;;;4807776;29;20082;-85
2022/07/14 02:39:12;;;;;;;7.13;2.13;;;22.40;58.30;;;;;;4808125;29;20044;-86
2022/07/14 02:41:40;;;;;;;6.20;2.13;;;22.40;58.00;;;;;;4807974;29;20042;-86
2022/07/14 02:44:06;;;;;;;8.48;2.15;;;22.40;58.10;;;;;;4822916;29;20129;-86
2022/07/14 02:46:32;;;;;;;8.75;2.58;;;22.40;58.20;;;;;;4837868;29;20035;-87
2022/07/14 02:49:17;;;;;;;5.00;1.83;;;22.40;58.10;;;;;;4836291;29;20094;-86
2022/07/14 02:51:43;;;;;;;8.05;2.13;;;22.40;58.00;;;;;;4808260;29;20129;-86
2022/07/14 02:54:11;;;;;;;5.95;1.95;;;22.30;57.70;;;;;;4823407;29;20497;-86
2022/07/14 02:56:37;;;;;;;10.57;2.40;;;22.30;57.80;;;;;;4837188;29;20050;-87
2022/07/14 02:59:07;;;;;;;8.45;2.53;;;22.30;57.80;;;;;;4823193;29;20071;-83
2022/07/14 03:01:35;;;;;;;5.15;2.20;;;22.30;57.60;;;;;;4807940;29;20043;-83
2022/07/14 03:04:03;;;;;;;8.75;2.53;;;22.30;57.60;;;;;;4822730;29;20050;-84
2022/07/14 03:06:29;;;;;;;8.82;2.30;;;22.20;57.50;;;;;;4806959;29;20038;-84
2022/07/14 03:08:56;;;;;;;7.35;2.05;;;22.20;57.40;;;;;;4837689;29;20030;-85
2022/07/14 03:11:22;;;;;;;8.68;2.30;;;22.20;57.30;;;;;;4822378;29;20038;-84
2022/07/14 03:13:48;;;;;;;9.48;2.45;;;22.10;57.30;;;;;;4837436;29;20038;-84
2022/07/14 03:16:16;;;;;;;6.88;1.65;;;22.20;57.20;;;;;;4837038;29;20050;-82
2022/07/14 03:18:45;;;;;;;6.77;2.13;;;22.10;56.90;;;;;;4807510;29;20396;-84
2022/07/14 03:21:12;;;;;;;9.27;2.20;;;22.10;57.40;;;;;;4822444;29;20030;-85
2022/07/14 03:23:44;;;;;;;9.32;1.90;;;22.10;56.70;;;;;;4807221;29;20030;-81
2022/07/14 03:26:14;;;;;;;10.38;2.05;;;22.10;56.60;;;;;;4822136;29;20034;-83
2022/07/14 03:28:41;;;;;;;12.02;2.78;;;22.10;56.50;;;;;;4823357;29;20026;-82
2022/07/14 03:31:07;;;;;;;11.60;2.47;;;22.00;56.40;;;;;;4834000;29;20023;-81
2022/07/14 03:33:34;;;;;;;8.60;2.38;;;22.00;56.30;;;;;;4807961;29;20031;-85
2022/07/14 03:36:00;;;;;;;9.93;2.63;;;22.00;56.30;;;;;;4803807;29;20038;-86
2022/07/14 03:38:27;;;;;;;11.15;2.38;;;22.00;56.30;;;;;;4788998;29;20046;-85
2022/07/14 03:40:55;;;;;;;12.68;2.40;;;22.00;56.20;;;;;;4788938;29;20495;-85
2022/07/14 03:43:21;;;;;;;12.38;2.47;;;22.00;56.20;;;;;;4788871;29;20039;-84
2022/07/14 03:45:48;;;;;;;10.18;2.50;;;22.00;56.20;;;;;;4791092;29;20043;-82
2022/07/14 03:48:16;;;;;;;9.85;2.90;;;22.00;56.30;;;;;;4803959;29;20031;-82
2022/07/14 03:50:49;;;;;;;10.77;2.38;;;22.00;56.30;;;;;;4789274;29;20031;-81
2022/07/14 03:53:16;;;;;;;11.20;2.35;;;22.00;56.20;;;;;;4803766;29;20428;-85
2022/07/14 03:55:43;;;;;;;10.13;2.88;;;22.00;56.20;;;;;;4788297;29;20035;-82
2022/07/14 03:58:09;;;;;;;9.95;2.72;;;22.00;56.00;;;;;;4803781;29;20034;-85
2022/07/14 04:00:36;;;;;;;11.27;3.10;;;22.00;56.20;;;;;;4792992;29;20034;-85
2022/07/14 04:03:02;;;;;;;14.23;3.13;;;22.10;57.60;;;;;;4822004;29;20511;-85
2022/07/14 04:05:29;;;;;;;12.45;3.25;;;22.10;58.00;;;;;;4807223;29;20134;-85
2022/07/14 04:08:03;;;;;;;12.82;3.20;;;22.10;57.40;;;;;;4821856;29;20035;-86
2022/07/14 04:10:39;;;;;;;10.57;2.90;;;22.10;56.80;;;;;;4806654;29;20038;-85
2022/07/14 04:13:05;;;;;;;12.10;2.92;;;22.10;55.60;;;;;;4806911;29;20045;-86
2022/07/14 04:15:31;;;;;;;14.52;4.05;;;22.10;55.80;;;;;;4803249;29;20514;-85
2022/07/14 04:17:58;;;;;;;15.18;3.58;;;22.00;58.50;;;;;;4788394;29;20039;-81
2022/07/14 04:20:25;;;;;;;13.00;3.35;;;22.10;57.70;;;;;;4816038;29;20364;-81
2022/07/14 04:22:51;;;;;;;11.98;3.50;;;22.10;58.90;;;;;;4821409;29;20184;-83
2022/07/14 04:25:18;;;;;;;19.52;4.18;;;22.20;58.40;;;;;;4836278;29;20449;-83
2022/07/14 04:27:44;;;;;;;16.42;3.40;;;22.30;60.40;;;;;;4824497;29;20109;-82
2022/07/14 04:30:13;;;;;;;15.32;3.60;;;22.30;61.50;;;;;;4840138;29;20103;-82
2022/07/14 04:32:39;;;;;;;15.25;3.60;;;22.40;60.90;;;;;;4824915;29;20041;-80
2022/07/14 04:35:07;;;;;;;12.23;3.38;;;22.40;60.30;;;;;;4824611;29;20441;-81
2022/07/14 04:37:34;;;;;;;11.90;3.10;;;22.40;60.40;;;;;;4809803;29;20038;-81
2022/07/14 04:40:05;;;;;;;15.65;3.60;;;22.40;60.30;;;;;;4824758;29;20063;-81
2022/07/14 04:42:31;;;;;;;12.27;2.80;;;22.40;59.70;;;;;;4824721;29;20034;-81
2022/07/14 04:44:57;;;;;;;13.20;2.85;;;22.40;59.30;;;;;;4839936;29;20094;-81
2022/07/14 04:47:27;;;;;;;9.05;2.83;;;22.50;59.00;;;;;;4824174;29;20046;-81
2022/07/14 04:52:49;;;;;;;9.38;2.78;;;22.40;58.50;;;;;;4824506;29;20039;-81
2022/07/14 04:55:33;;;;;;;11.25;3.25;;;22.50;58.40;;;;;;4824450;29;20128;-81
2022/07/14 04:58:24;;;;;;;11.65;2.90;;;22.50;58.40;;;;;;4809914;29;20042;-82
2022/07/14 05:00:50;;;;;;;14.73;3.60;;;22.50;58.40;;;;;;4839649;29;20034;-81
2022/07/14 05:03:16;;;;;;;9.77;2.90;;;22.50;58.40;;;;;;4809415;29;20087;-82
2022/07/14 05:05:42;;;;;;;10.23;2.97;;;22.50;58.50;;;;;;4824488;29;20045;-81
2022/07/14 05:08:08;;;;;;;8.88;2.88;;;22.50;58.40;;;;;;4824239;29;20110;-82
2022/07/14 05:10:43;;;;;;;9.07;2.88;;;22.50;58.70;;;;;;4824264;29;20066;-82
2022/07/14 05:13:09;;;;;;;11.73;3.20;;;22.50;58.60;;;;;;4809345;29;20030;-81
2022/07/14 05:15:35;;;;;;;10.32;3.00;;;22.60;58.90;;;;;;4808736;29;20416;-81
2022/07/14 05:18:03;;;;;;;13.35;3.10;;;22.50;59.00;;;;;;4824060;29;20507;-79
2022/07/14 05:20:29;;;;;;;8.60;2.70;;;22.50;58.60;;;;;;4824129;29;20077;-80
2022/07/14 05:22:55;;;;;;;11.30;2.92;;;22.50;58.60;;;;;;4839302;29;20040;-80
2022/07/14 05:25:21;;;;;;;14.25;3.55;;;22.50;58.50;;;;;;4809201;29;20133;-81
2022/07/14 05:27:47;;;;;;;10.40;2.97;;;22.50;59.30;;;;;;4839238;29;20087;-81
2022/07/14 05:30:25;;;;;;;13.73;2.90;;;22.50;58.80;;;;;;4823974;29;20088;-80
2022/07/14 05:32:51;;;;;;;10.48;3.17;;;22.50;58.80;;;;;;4839060;29;20030;-81
2022/07/14 05:35:21;;;;;;;11.25;3.40;;;22.60;58.90;;;;;;4838600;29;20101;-81
2022/07/14 05:37:48;;;;;;;8.60;2.72;;;22.60;59.00;;;;;;4822480;29;20038;-80
2022/07/14 05:40:15;;;;;;;7.07;2.83;;;22.60;59.10;;;;;;4823858;29;20038;-81
2022/07/14 05:42:42;;;;;;;7.90;2.78;;;22.60;59.10;;;;;;4823691;29;20045;-81
2022/07/14 05:45:08;;;;;;;10.15;2.70;;;22.60;59.10;;;;;;4823607;29;20034;-80
2022/07/14 05:47:34;;;;;;;10.48;3.20;;;22.60;59.20;;;;;;4823432;29;20043;-80
2022/07/14 05:50:00;;;;;;;8.50;2.50;;;22.60;59.20;;;;;;4838864;29;20034;-80
2022/07/14 05:52:30;;;;;;;12.57;3.03;;;22.60;59.20;;;;;;4823628;29;20091;-81
2022/07/14 05:55:01;;;;;;;8.30;2.58;;;22.60;59.20;;;;;;4838701;29;20506;-81
2022/07/14 05:57:28;;;;;;;9.30;2.70;;;22.60;59.30;;;;;;4838498;29;20552;-81
2022/07/14 05:59:54;;;;;;;8.88;3.00;;;22.60;59.30;;;;;;4808401;29;20073;-82
2022/07/14 06:02:19;;;;;;;9.73;2.90;;;22.60;59.40;;;;;;4838714;29;20038;-81
2022/07/14 06:04:45;;;;;;;9.02;2.83;;;22.60;59.40;;;;;;4838586;29;20377;-81
2022/07/14 06:07:12;;;;;;;8.52;2.60;;;22.60;59.50;;;;;;4823317;29;20383;-81
2022/07/14 06:09:41;;;;;;;11.65;2.85;;;22.60;59.60;;;;;;4823216;29;20049;-80
2022/07/14 06:12:09;;;;;;;11.20;3.03;;;22.60;59.60;;;;;;4823248;29;20402;-81
2022/07/14 06:14:40;;;;;;;9.45;2.83;;;22.60;59.50;;;;;;4808174;29;20046;-82
2022/07/14 06:17:09;;;;;;;8.00;2.72;;;22.60;59.60;;;;;;4838107;29;20054;-82
2022/07/14 06:19:35;;;;;;;8.05;2.60;;;22.60;59.70;;;;;;4823595;29;20116;-81
2022/07/14 06:22:05;;;;;;;8.43;2.88;;;22.70;59.70;;;;;;4823354;29;20037;-81
2022/07/14 06:24:33;;;;;;;8.45;2.80;;;22.70;59.80;;;;;;4823172;29;20245;-81
2022/07/14 06:26:59;;;;;;;8.70;2.45;;;22.70;59.70;;;;;;4837843;29;20087;-82
2022/07/14 06:29:25;;;;;;;5.90;2.20;;;22.70;59.80;;;;;;4823010;29;20026;-82
2022/07/14 06:31:55;;;;;;;6.63;2.38;;;22.70;59.80;;;;;;4838114;29;20114;-82
2022/07/14 06:34:22;;;;;;;8.23;2.50;;;22.70;59.70;;;;;;4838154;29;20030;-81
2022/07/14 06:37:15;;;;;;;8.43;2.35;;;22.70;59.80;;;;;;4824289;29;20042;-81
2022/07/14 06:39:42;;;;;;;8.23;2.40;;;22.70;59.80;;;;;;4837880;29;20042;-82
2022/07/14 06:42:09;;;;;;;7.13;2.30;;;22.70;59.80;;;;;;4822845;29;20523;-82
2022/07/14 06:44:41;;;;;;;8.13;2.58;;;22.70;59.80;;;;;;4838182;29;20129;-82
2022/07/14 06:47:07;;;;;;;7.05;2.63;;;22.70;59.80;;;;;;4822447;29;20122;-82
2022/07/14 06:49:33;;;;;;;7.80;3.03;;;22.60;59.80;;;;;;4837505;29;20030;-82
2022/07/14 06:51:59;;;;;;;7.57;2.53;;;22.70;59.90;;;;;;4823102;29;20034;-82
2022/07/14 06:54:25;;;;;;;6.97;2.50;;;22.70;60.00;;;;;;4822648;29;20082;-83
2022/07/14 06:56:51;;;;;;;6.57;2.55;;;22.70;60.00;;;;;;4822273;29;20045;-82
2022/07/14 06:59:17;;;;;;;7.45;2.75;;;22.70;60.00;;;;;;4822825;29;20405;-83
2022/07/14 07:01:43;;;;;;;7.00;2.33;;;22.70;60.00;;;;;;4822644;29;20098;-82
2022/07/14 07:04:09;;;;;;;9.18;2.63;;;22.70;60.00;;;;;;4822452;29;20129;-82
2022/07/14 07:06:43;;;;;;;8.57;2.72;;;22.70;60.00;;;;;;4822156;29;20041;-82
2022/07/14 07:09:13;;;;;;;3.95;2.00;;;22.70;60.10;;;;;;4823635;29;20083;-82
2022/07/14 07:11:39;;;;;;;;;;;22.70;60.10;;;;;;4824010;29;20080;-82
2022/07/14 07:14:05;;;;;;;5.95;2.30;;;22.70;60.10;;;;;;4823546;29;19913;-82
2022/07/14 07:16:31;;;;;;;6.53;2.38;;;22.70;60.10;;;;;;4823004;29;20045;-83
2022/07/14 07:18:57;;;;;;;7.13;2.53;;;22.70;60.10;;;;;;4822469;29;20038;-82
2022/07/14 07:21:23;;;;;;;7.35;2.45;;;22.70;60.20;;;;;;4837334;29;20563;-82
2022/07/14 07:23:50;;;;;;;5.72;2.17;;;22.70;60.10;;;;;;4822320;29;20106;-82
2022/07/14 07:26:17;;;;;;;6.72;2.42;;;22.70;60.20;;;;;;4823057;29;20034;-82
2022/07/14 07:28:43;;;;;;;8.02;2.60;;;22.70;60.10;;;;;;4823313;29;20441;-82
2022/07/14 07:31:09;;;;;;;5.57;2.10;;;22.70;60.10;;;;;;4807114;29;20057;-82
2022/07/14 07:33:38;;;;;;;4.90;2.10;;;22.70;60.20;;;;;;4822110;29;20026;-82
2022/07/14 07:36:04;;;;;;;6.43;2.20;;;22.70;60.20;;;;;;4806711;29;20037;-82
2022/07/14 07:38:30;;;;;;;6.57;2.08;;;22.70;60.20;;;;;;4821933;29;20030;-82
2022/07/14 07:40:55;;;;;;;3.60;1.90;;;22.70;60.30;;;;;;4822120;29;20082;-82
2022/07/14 07:43:22;;;;;;;5.53;2.13;;;22.70;60.30;;;;;;4807060;29;20064;-82
2022/07/14 07:45:50;;;;;;;5.25;2.20;;;22.80;60.30;;;;;;4821864;29;20065;-82
2022/07/14 07:48:16;;;;;;;5.70;1.98;;;22.80;60.90;;;;;;4823066;29;20026;-81
2022/07/14 07:50:43;;;;;;;7.32;2.53;;;22.80;60.30;;;;;;4837046;29;20030;-81
2022/07/14 07:53:10;;;;;;;6.13;2.00;;;22.80;60.30;;;;;;4821796;29;20395;-81
2022/07/14 07:55:36;;;;;;;5.15;2.28;;;22.80;60.30;;;;;;4821679;29;20038;-81
2022/07/14 07:58:02;;;;;;;6.22;2.20;;;22.80;60.20;;;;;;4821821;29;20083;-81
2022/07/14 08:00:28;;;;;;;5.60;2.10;;;22.80;60.20;;;;;;4822150;29;20034;-81
2022/07/14 08:02:54;;;;;;;6.40;2.20;;;22.80;60.20;;;;;;4810414;29;20042;-81
2022/07/14 08:05:23;;;;;;;4.50;1.98;;;22.80;60.20;;;;;;4825285;29;20041;-80
2022/07/14 08:07:49;;;;;;;5.05;1.90;;;22.80;60.20;;;;;;4826444;29;20041;-81
2022/07/14 08:10:15;;;;;;;6.30;1.83;;;22.80;60.20;;;;;;4825467;29;20031;-81
2022/07/14 08:12:42;;;;;;;6.57;2.25;;;22.90;60.20;;;;;;4825470;29;20046;-81
2022/07/14 08:15:09;;;;;;;5.90;2.00;;;22.80;60.10;;;;;;4826156;29;20042;-81
2022/07/14 08:17:35;;;;;;;5.95;2.13;;;22.90;60.20;;;;;;4826567;29;20121;-81
2022/07/14 08:20:02;;;;;;;6.35;1.98;;;22.90;60.20;;;;;;4826284;29;20069;-81
2022/07/14 08:22:28;;;;;;;8.15;2.25;;;22.90;60.20;;;;;;4825438;29;20038;-81
2022/07/14 08:24:55;;;;;;;6.10;2.25;;;22.90;60.20;;;;;;4826124;29;20030;-81
2022/07/14 08:27:22;;;;;;;5.72;2.40;;;22.90;60.20;;;;;;4824703;29;20038;-81
2022/07/14 08:29:48;;;;;;;5.47;1.95;;;22.90;60.30;;;;;;4810158;29;20086;-81
2022/07/14 08:32:14;;;;;;;5.53;2.30;;;22.90;60.30;;;;;;4809966;29;20497;-81
2022/07/14 08:34:40;;;;;;;5.60;2.35;;;22.80;60.20;;;;;;4825033;29;20121;-81
2022/07/14 08:37:06;;;;;;;5.45;1.90;;;22.80;60.30;;;;;;4824337;29;20500;-81
2022/07/14 08:39:32;;;;;;;4.47;1.83;;;22.90;60.30;;;;;;4840189;29;20400;-81
2022/07/14 08:42:00;;;;;;;5.38;1.90;;;22.80;60.30;;;;;;4824678;29;20045;-81
2022/07/14 08:44:27;;;;;;;3.58;1.98;;;22.90;60.40;;;;;;4825710;29;20039;-81
2022/07/14 08:46:53;;;;;;;4.45;1.98;;;22.90;60.40;;;;;;4825393;29;20373;-81
2022/07/14 08:49:19;;;;;;;4.53;1.80;;;22.80;60.40;;;;;;4809842;29;20044;-81
2022/07/14 08:51:47;;;;;;;3.88;1.88;;;22.90;60.40;;;;;;4825675;29;20030;-80
2022/07/14 08:54:13;;;;;;;3.85;1.90;;;22.80;60.40;;;;;;4824690;29;20057;-81
2022/07/14 08:56:42;;;;;;;6.97;2.15;;;22.80;60.30;;;;;;4825266;29;20058;-81
2022/07/14 08:59:09;;;;;;;4.97;1.85;;;22.90;60.40;;;;;;4825561;29;20023;-81
2022/07/14 09:01:36;;;;;;;5.00;1.90;;;22.80;60.40;;;;;;4824440;29;20087;-81
2022/07/14 09:04:02;;;;;;;5.90;2.15;;;22.90;60.40;;;;;;4825571;29;20039;-81
2022/07/14 09:06:52;;;;;;;4.18;1.73;;;22.80;60.40;;;;;;4839196;29;20121;-81
2022/07/14 09:09:18;;;;;;;;;;;22.80;60.40;;;;;;4825866;29;20030;-81
2022/07/14 09:11:52;;;;;;;4.82;2.10;;;22.80;60.40;;;;;;4824941;29;19966;-80
2022/07/14 09:14:18;;;;;;;3.13;1.63;;;22.90;60.40;;;;;;4809117;29;20121;-81
2022/07/14 09:16:43;;;;;;;3.75;1.88;;;22.90;60.40;;;;;;4824792;29;20042;-81
2022/07/14 09:19:13;;;;;;;4.40;1.70;;;22.90;60.40;;;;;;4825194;29;20475;-81
2022/07/14 09:21:45;;;;;;;4.72;1.80;;;22.90;60.40;;;;;;4824151;29;20038;-81
2022/07/14 09:24:14;;;;;;;8.07;1.90;;;22.90;60.40;;;;;;4825496;29;20380;-81
2022/07/14 09:26:45;;;;;;;3.97;1.80;;;22.90;60.50;;;;;;4838816;29;20039;-81
2022/07/14 09:29:30;;;;;;;4.60;1.67;;;22.90;60.50;;;;;;4823910;29;20456;-81
2022/07/14 09:31:55;;;;;;;6.10;2.13;;;22.80;60.40;;;;;;4839234;29;20031;-81
2022/07/14 09:34:32;;;;;;;5.22;1.90;;;22.90;60.50;;;;;;4809059;29;20098;-81
2022/07/14 09:37:18;;;;;;;4.32;1.63;;;22.90;60.50;;;;;;4824656;29;20411;-81
2022/07/14 09:39:55;;;;;;;4.88;1.70;;;22.90;60.40;;;;;;4825060;29;20034;-81
2022/07/14 09:42:41;;;;;;;3.50;1.60;;;22.90;60.50;;;;;;4824994;29;20066;-81
2022/07/14 09:45:10;;;;;;;5.05;2.10;;;22.90;60.40;;;;;;4824412;29;20048;-81
2022/07/14 09:48:00;;;;;;;3.70;2.00;;;22.90;60.40;;;;;;4823546;29;20034;-81
2022/07/14 09:50:43;;;;;;;4.50;1.73;;;22.90;60.40;;;;;;4824177;29;20034;-80
2022/07/14 09:53:11;;;;;;;4.97;1.80;;;22.90;60.30;;;;;;4824742;29;20030;-81
2022/07/14 09:55:39;;;;;;;4.18;1.90;;;22.90;60.30;;;;;;4823343;29;20030;-82
2022/07/14 09:58:09;;;;;;;4.03;1.60;;;22.90;60.30;;;;;;4824608;29;20505;-80
2022/07/14 10:00:35;;;;;;;;;;;22.90;60.20;;;;;;4823892;29;20042;-81
2022/07/14 10:03:03;;;;;;;3.85;1.52;;;23.00;60.30;;;;;;4823602;29;20294;-81
2022/07/14 10:05:32;;;;;;;5.45;1.77;;;23.00;60.30;;;;;;4824208;29;20109;-80
2022/07/14 10:07:59;;;;;;;4.43;1.80;;;22.90;60.90;;;;;;4824395;29;20043;-81
2022/07/14 10:10:25;;;;;;;4.30;1.92;;;23.00;60.30;;;;;;4808260;29;20035;-81
2022/07/14 10:12:52;;;;;;;4.90;1.90;;;22.90;60.20;;;;;;4808645;29;20582;-81
2022/07/14 10:15:18;;;;;;;6.72;2.10;;;22.90;60.20;;;;;;4823061;29;20041;-81
2022/07/14 10:17:44;;;;;;;5.00;1.70;;;23.00;60.30;;;;;;4824235;29;20034;-80
2022/07/14 10:20:12;;;;;;;4.15;1.52;;;23.00;60.40;;;;;;4823270;29;20045;-80
2022/07/14 10:22:38;;;;;;;3.72;1.42;;;22.90;60.30;;;;;;4838313;29;20062;-81
2022/07/14 10:25:06;;;;;;;3.28;1.45;;;23.00;60.50;;;;;;4822148;29;20419;-80
2022/07/14 10:27:32;;;;;;;4.28;1.50;;;23.00;60.40;;;;;;4822938;29;20041;-80
2022/07/14 10:29:58;;;;;;;4.63;1.65;;;22.90;60.40;;;;;;4823045;29;20034;-81
2022/07/14 10:32:38;;;;;;;4.07;2.05;;;23.00;60.40;;;;;;4838190;29;20416;-80
2022/07/14 10:35:15;;;;;;;3.28;1.42;;;22.90;60.40;;;;;;4824019;29;20034;-81
2022/07/14 10:37:54;;;;;;;3.33;1.50;;;22.90;60.40;;;;;;4837947;29;20046;-80
2022/07/14 10:40:41;;;;;;;3.63;1.60;;;22.90;60.50;;;;;;4824161;29;20065;-80
2022/07/14 10:43:11;;;;;;;3.90;1.60;;;22.90;60.50;;;;;;4838233;29;20520;-80
2022/07/14 10:45:49;;;;;;;;;;;22.90;60.40;;;;;;4824136;29;20095;-80
2022/07/14 10:48:36;;;;;;;5.13;1.65;;;22.90;60.50;;;;;;4823664;29;20392;-80
2022/07/14 10:51:14;;;;;;;3.63;1.40;;;22.90;61.00;;;;;;4823874;29;20054;-80
2022/07/14 10:54:05;;;;;;;3.80;1.73;;;22.90;60.50;;;;;;4823860;29;20030;-80
2022/07/14 10:56:32;;;;;;;3.03;1.60;;;22.90;60.50;;;;;;4823010;29;20412;-80
2022/07/14 10:59:25;;;;;;;3.95;1.88;;;22.90;60.50;;;;;;4823702;29;20555;-80
2022/07/14 11:02:10;;;;;;;3.17;1.50;;;22.90;60.50;;;;;;4823713;29;20042;-80
2022/07/14 11:07:57;;;;;;;3.78;1.70;;;22.90;60.50;;;;;;4823396;29;20077;-80
2022/07/14 11:10:24;;;;;;;3.53;1.40;;;22.90;60.50;;;;;;4826098;29;20050;-80
2022/07/14 11:12:59;;;;;;;2.60;1.10;;;22.90;60.50;;;;;;4822859;29;20034;-81
2022/07/14 11:15:43;;;;;;;3.97;1.60;;;22.90;60.50;;;;;;4822626;29;20034;-81
2022/07/14 11:18:18;;;;;;;4.38;1.83;;;22.90;60.50;;;;;;4823450;29;20121;-81
2022/07/14 11:21:01;;;;;;;2.47;1.63;;;22.90;60.50;;;;;;4823455;29;20035;-81
2022/07/14 11:23:29;;;;;;;4.25;1.50;;;22.90;60.50;;;;;;4823442;29;20057;-81
2022/07/14 11:25:56;;;;;;;3.10;1.70;;;22.90;60.50;;;;;;4823141;29;20034;-81
2022/07/14 11:28:31;;;;;;;2.78;1.40;;;22.90;60.50;;;;;;4822374;29;20038;-82
2022/07/14 11:31:17;;;;;;;2.65;1.40;;;22.90;60.50;;;;;;4823365;29;20039;-82
2022/07/14 11:36:31;;;;;;;4.55;2.00;;;22.90;60.50;;;;;;4823085;29;20069;-82
2022/07/14 11:39:15;;;;;;;3.75;1.75;;;22.90;60.50;;;;;;4823268;29;20074;-82
2022/07/14 11:41:44;;;;;;;3.88;1.75;;;22.90;60.40;;;;;;4823231;29;20099;-82
2022/07/14 11:44:40;;;;;;;4.00;1.55;;;22.90;60.40;;;;;;4823197;29;20039;-82
2022/07/14 11:47:09;;;;;;;3.80;1.75;;;22.90;60.40;;;;;;4821637;29;20038;-82
2022/07/14 11:49:36;;;;;;;3.80;1.65;;;23.00;60.40;;;;;;4822181;29;20043;-82
2022/07/14 11:52:05;;;;;;;2.95;1.50;;;23.00;60.40;;;;;;4821938;29;20031;-82
2022/07/14 11:54:31;;;;;;;3.45;1.52;;;22.90;60.30;;;;;;4822189;29;20030;-81
2022/07/14 11:57:08;;;;;;;2.53;1.40;;;23.00;60.40;;;;;;4836405;29;20038;-81
2022/07/14 11:59:36;;;;;;;4.13;1.50;;;23.00;60.30;;;;;;4836831;29;20117;-81
2022/07/14 12:02:09;;;;;;;4.25;1.60;;;23.00;60.30;;;;;;4821654;29;20484;-81
2022/07/14 12:04:47;;;;;;;3.63;1.55;;;22.90;60.30;;;;;;4822917;29;20038;-82
2022/07/14 12:07:13;;;;;;;2.72;1.40;;;23.00;60.30;;;;;;4836439;29;20035;-82
2022/07/14 12:09:40;;;;;;;2.78;1.30;;;23.00;60.30;;;;;;4822872;29;20037;-82
2022/07/14 12:12:06;;;;;;;2.75;1.60;;;23.00;60.30;;;;;;4821743;29;20034;-82
2022/07/14 12:14:42;;;;;;;3.65;1.52;;;23.00;60.40;;;;;;4822983;29;20106;-82
2022/07/14 12:17:08;;;;;;;3.60;1.55;;;22.90;60.30;;;;;;4821208;29;20031;-82
2022/07/14 12:19:34;;;;;;;4.80;1.70;;;22.90;60.30;;;;;;4823039;29;20068;-82
2022/07/14 12:22:04;;;;;;;3.08;1.60;;;22.90;60.40;;;;;;4822782;29;20038;-82
2022/07/14 12:24:31;;;;;;;2.67;1.40;;;22.90;60.40;;;;;;4821678;29;20045;-82
2022/07/14 12:27:05;;;;;;;2.83;1.63;;;22.90;60.40;;;;;;4821144;29;20515;-82
2022/07/14 12:29:33;;;;;;;2.70;1.30;;;22.90;60.50;;;;;;4822640;29;20508;-82
2022/07/14 12:32:00;;;;;;;4.57;1.80;;;22.90;60.40;;;;;;4822701;29;20033;-82
2022/07/14 12:34:27;;;;;;;3.72;1.60;;;22.90;60.50;;;;;;4836739;29;20094;-82
2022/07/14 12:37:01;;;;;;;3.33;1.50;;;22.90;60.40;;;;;;4836200;29;20036;-82
2022/07/14 12:39:29;;;;;;;3.20;1.45;;;22.90;60.50;;;;;;4821653;29;20432;-82
2022/07/14 12:41:55;;;;;;;2.85;1.55;;;22.90;60.50;;;;;;4822606;29;20035;-82
2022/07/14 12:44:21;;;;;;;3.55;1.50;;;22.90;60.50;;;;;;4822471;29;20159;-82
2022/07/14 12:47:15;;;;;;;3.45;1.50;;;22.90;61.00;;;;;;4822698;29;20121;-81
2022/07/14 12:49:45;;;;;;;2.80;1.50;;;22.90;60.50;;;;;;4824572;29;20046;-83
2022/07/14 12:52:15;;;;;;;3.10;1.50;;;22.90;60.50;;;;;;4824533;29;20479;-82
2022/07/14 12:54:41;;;;;;;;;;;22.90;60.50;;;;;;4826459;29;20035;-82
2022/07/14 12:57:21;;;;;;;2.33;1.13;;;22.90;60.50;;;;;;4824104;29;20391;-82
2022/07/14 12:59:47;;;;;;;2.75;1.52;;;22.90;60.50;;;;;;4824441;29;20077;-82
2022/07/14 13:02:23;;;;;;;3.25;1.52;;;22.90;60.50;;;;;;4825514;29;20064;-82
2022/07/14 13:04:51;;;;;;;2.25;1.20;;;22.90;60.50;;;;;;4824431;29;20491;-82
2022/07/14 13:07:27;;;;;;;3.17;1.40;;;22.90;60.50;;;;;;4824995;29;20054;-82
2022/07/14 13:10:19;;;;;;;3.30;1.52;;;22.90;60.50;;;;;;4825493;29;20377;-84